TNCE/EUX METAR and TAF weather

Enter ICAO airport designator
Station Type Date Time Source
TNCE METAR 2022/12/10 02:55 UTC NOAA

TNCE 100255Z AUTO 36006KT 320V050 //// // ///////// 25/19 Q1013 RE//


Station Type Date Time Source
TNCE Decoded METAR 2022/12/10 02:55 UTC NOAA

Roosevelt Airport Saint Eustatius, Netherlands Antilles (TNCE) 17-29N 062-59W 39M
Dec 09, 2022 - 09:55 PM EST / 2022.12.10 0255 UTC
Wind: from the N (360 degrees) at 7 MPH (6 KT) (direction variable):0
Temperature: 77 F (25 C)
Dew Point: 66 F (19 C)
Relative Humidity: 69%
Pressure (altimeter): 29.91 in. Hg (1013 hPa)
ob: TNCE 100255Z AUTO 36006KT 320V050 //// // ///////// 25/19 Q1013 RE//
cycle: 3

Station Type Date Time Source
TNCE TAF UTC NOAA

Error!

Example: see airport list